Terminal Aerodrome Forecast
Issued by NWS Wakefield, VA

Home | Current Version | Previous Version | Text Only | Print | Product List | Glossary On
Versions: 1 2 3 4 5 6 7 8 9 10 11 12 13 14 15 16
546
FTUS41 KAKQ 251739
TAFSBY
TAF
KSBY 251739Z 2518/2618 17013G21KT P6SM SCT040 SCT200
     FM252200 18014G23KT 4SM -SHRA VCTS OVC040CB
     FM260000 31014G23KT P6SM BKN050
     FM260900 29009KT P6SM SKC
     FM261500 30014G22KT P6SM SCT150=

USA.gov is the U.S. government's official web portal to all federal, state and local government web resources and services.